Comandante Luis Piedra Buena, Argentina
Current Conditions -  °F | °C
As of 11:00 AM on Thursday 27 Nov 2014 (Local Time) from SAWG Reporting Station
Clear Clear  
Wind Chill: 12°   Ceiling: Unl
Heat Index: 12°   Visibility: 6mi
Dew Point:   Wind: 14mph
Humidity: 62%   Direction: 360°N
Pressure: 29.5"   Gusts: NA
Location:  49.98°S, 68.9°W
Report Text: SAWG 271400Z 36012KT CAVOK 12/05 Q0999
Loading
Personal Weather Stations






























Interactive Weather Map New forecast layout! Learn more

10-Day Weather Forecast

Advertisements
Track Severe Weather on mobile